Buie, Arkansas
Current Conditions -  °F | °C
As of 12:53 AM on Thursday 27 Nov 2014 (Local Time) from KLIT Reporting Station
Clear Clear  
Wind Chill: 37°   Ceiling: Unl
Heat Index: 44°   Visibility: 10mi
Dew Point: 25°   Wind: 15mph
Humidity: 47%   Direction: 310°NW
Pressure: 30.3"   Gusts: NA
Location:  34.2978°N, 92.5047°W
Report Text: KLIT 270653Z 31013KT 10SM CLR 07/M04 A3030 RMK AO2 SLP264 T00671039
Loading
Personal Weather Stations






























Interactive Weather Map New forecast layout! Learn more

10-Day Weather Forecast

Advertisements
Track Severe Weather on mobile